Pagrindinis puslapis
METAR-TAF:

METAR-TAF

Oro uostai :

Ainas, Jungtiniai Arabų Emyratai

platuma: 24-16N, ilguma: 055-36E, Aukštis: 265 m

Dabartinis oras

Ataskaita buvo paskelbta 17 minutes, ne 15:00 UTC
Vėjas 10 kt iš Šiaurės Vakarų
Temperatūra 17°C
Drėgmė 55%
Slėgis 1020 hPa
Matomumas 10 km arba daugiau
Mažai debesys ne aukštis 4600 ft

METAR: OMAL 271500Z 31010KT 9999 FEW046 17/08 Q1020 NOSIG

Laikas: 19:17 (15:17 UTC)

Prognozė

Ataskaita buvo paskelbta 4 valandos ir 17 minutes, ne 11:00 UTC
Prognozė galioja nuo 27 metu 12 UTC su 28 metu 18 UTC
Vėjas 12 kt iš Vakarų/Šiaurės Vakarų
Matomumas: 8000 m
Išsisklaidę debesys ne aukštis 4000 ft
Tapsmas
nuo 27 metu 18 UTC su 27 metu 20 UTC
Vėjas 5 kt iš Pietų/Pietvakarių
Tapsmas
nuo 28 metu 06 UTC su 28 metu 08 UTC
Vėjas 10 kt iš Šiaurės/Šiaurės Vakarų

TAF: OMAL 271100Z 2712/2818 30012KT 8000 SCT040 BECMG 2718/2720 20005KT BECMG 2806/2808 33010KT

Orai ataskaitas ir orų prognozės (METAR, TAF).

turimą stotys yra geltonos ir raudonos taškus žemėlapyje.

Perkelti pele per norėdami pamatyti stoties vardą.

Tada spustelėkite, norėdami matyti oro stebėjimo ir prognozės.

Norėdami pakeisti žemėlapį: spustelėkite ant žalios mygtukų su juodo kryžiaus žemyn,; žalią mygtuką su brūkšneliu, jei norite nutolinti; arba žalių rodyklių gretimoms žemėlapius.


METAR-TAF: